createdAt,value
2023-05-17T00:00:38.393Z,78.17
2023-05-17T00:03:16.817Z,77.72
2023-05-17T00:05:44.930Z,77.32
2023-05-17T00:08:13.336Z,78.05
2023-05-17T00:10:41.669Z,77.66
2023-05-17T00:13:09.684Z,77.42
2023-05-17T00:15:37.844Z,77.30
2023-05-17T00:18:06.315Z,77.93
2023-05-17T00:20:35.903Z,78.36
2023-05-17T00:23:04.272Z,77.96
2023-05-17T00:25:32.399Z,78.04
2023-05-17T00:28:01.022Z,77.77
2023-05-17T00:30:29.978Z,77.87
2023-05-17T00:32:58.204Z,78.03
2023-05-17T00:35:26.974Z,78.30
2023-05-17T00:37:55.971Z,78.15
2023-05-17T00:40:24.270Z,78.35
2023-05-17T00:42:52.549Z,78.22
2023-05-17T00:45:20.656Z,78.12
2023-05-17T00:47:48.796Z,78.33
2023-05-17T00:50:17.181Z,78.33
2023-05-17T00:52:48.601Z,78.42
2023-05-17T00:55:19.978Z,78.51
2023-05-17T00:57:48.956Z,79.15
2023-05-17T01:00:17.209Z,79.23
2023-05-17T01:02:48.750Z,79.14
2023-05-17T01:05:17.459Z,79.20
2023-05-17T01:07:45.557Z,79.37
2023-05-17T01:10:16.249Z,79.45
2023-05-17T01:13:32.936Z,79.23
2023-05-17T01:16:09.241Z,79.86
2023-05-17T01:18:47.231Z,79.67
2023-05-17T01:21:36.251Z,79.58
2023-05-17T01:24:40.330Z,79.67
2023-05-17T01:27:19.829Z,80.41
2023-05-17T01:29:59.866Z,80.14
2023-05-17T01:32:28.587Z,79.99
2023-05-17T01:34:56.983Z,79.50
2023-05-17T01:37:37.733Z,79.29
2023-05-17T01:40:10.753Z,79.30
2023-05-17T01:42:42.818Z,78.85
2023-05-17T01:45:52.674Z,77.85
2023-05-17T01:48:24.362Z,77.10
2023-05-17T01:50:56.603Z,75.95
2023-05-17T01:53:37.948Z,76.04
2023-05-17T01:56:35.809Z,75.73
2023-05-17T01:59:07.488Z,75.37
2023-05-17T02:01:36.722Z,75.65
2023-05-17T02:04:05.039Z,75.63
2023-05-17T02:06:33.289Z,75.23
2023-05-17T02:09:03.032Z,75.19
2023-05-17T02:11:32.906Z,75.05
2023-05-17T02:14:01.214Z,75.42
2023-05-17T02:16:29.227Z,76.70
2023-05-17T02:18:57.540Z,77.23
2023-05-17T02:21:25.837Z,77.13
2023-05-17T02:23:53.967Z,76.90
2023-05-17T02:26:22.091Z,77.15
2023-05-17T02:28:50.060Z,77.10
2023-05-17T02:31:18.093Z,77.39
2023-05-17T02:33:46.355Z,76.84
2023-05-17T02:36:14.341Z,76.66
2023-05-17T02:38:42.501Z,76.94
2023-05-17T02:41:10.510Z,77.01
2023-05-17T02:43:38.556Z,77.43
2023-05-17T02:46:06.841Z,77.04
2023-05-17T02:48:34.935Z,77.32
2023-05-17T02:51:03.332Z,77.52
2023-05-17T02:53:31.396Z,78.29
2023-05-17T02:56:02.030Z,78.56
2023-05-17T02:58:30.411Z,79.00
2023-05-17T03:00:59.115Z,78.80
2023-05-17T03:03:27.704Z,78.78
2023-05-17T03:06:00.649Z,78.48
2023-05-17T03:08:29.165Z,78.09
2023-05-17T03:10:58.483Z,78.33
2023-05-17T03:13:26.571Z,78.72
2023-05-17T03:15:54.733Z,78.19
2023-05-17T03:18:23.153Z,78.13
2023-05-17T03:20:54.672Z,77.96
2023-05-17T03:23:22.995Z,77.90
2023-05-17T03:25:59.757Z,77.85
2023-05-17T03:28:30.918Z,77.73
2023-05-17T03:30:59.265Z,77.76
2023-05-17T03:33:30.662Z,77.48
2023-05-17T03:35:59.415Z,77.58
2023-05-17T03:38:27.739Z,77.96
2023-05-17T03:40:56.110Z,77.54
2023-05-17T03:43:24.320Z,77.81
2023-05-17T03:45:52.837Z,78.26
2023-05-17T03:48:20.942Z,78.30
2023-05-17T03:50:49.089Z,78.28
2023-05-17T03:53:17.290Z,78.74
2023-05-17T03:55:45.745Z,77.98
2023-05-17T03:58:14.350Z,76.71
2023-05-17T04:00:42.785Z,75.96
2023-05-17T04:03:14.037Z,75.79
2023-05-17T04:05:42.143Z,73.90
2023-05-17T04:08:10.482Z,73.56
2023-05-17T04:10:42.287Z,73.04
2023-05-17T04:13:12.784Z,73.27
2023-05-17T04:15:41.437Z,73.15
2023-05-17T04:18:10.164Z,73.11
2023-05-17T04:20:38.444Z,72.29
2023-05-17T04:23:07.016Z,72.71
2023-05-17T04:25:35.793Z,72.70
2023-05-17T04:28:04.197Z,72.92
2023-05-17T04:30:33.056Z,73.30
2023-05-17T04:33:01.692Z,73.39
2023-05-17T04:35:32.610Z,73.54
2023-05-17T04:38:01.106Z,73.33
2023-05-17T04:40:32.291Z,73.44
2023-05-17T04:43:00.928Z,73.47
2023-05-17T04:45:31.314Z,73.73
2023-05-17T04:47:59.742Z,74.13
2023-05-17T04:50:28.671Z,74.16
2023-05-17T04:52:59.700Z,73.89
2023-05-17T04:55:29.217Z,73.65
2023-05-17T04:58:00.759Z,74.02
2023-05-17T05:00:29.067Z,73.97
2023-05-17T05:03:01.636Z,73.67
2023-05-17T05:05:39.856Z,72.98
2023-05-17T05:08:09.952Z,73.15
2023-05-17T05:10:38.158Z,73.28
2023-05-17T05:13:06.775Z,73.16
2023-05-17T05:15:35.415Z,73.00
2023-05-17T05:18:06.629Z,73.38
2023-05-17T05:20:38.182Z,74.14
2023-05-17T05:23:07.726Z,74.42
2023-05-17T05:25:38.582Z,74.46
2023-05-17T05:28:23.353Z,74.99
2023-05-17T05:30:58.057Z,74.91
2023-05-17T05:33:36.470Z,74.68
2023-05-17T05:36:05.575Z,74.17
2023-05-17T05:38:37.379Z,74.89
2023-05-17T05:41:06.610Z,75.11
2023-05-17T05:44:07.105Z,75.51
2023-05-17T05:46:43.420Z,75.37
2023-05-17T05:49:26.241Z,75.59
2023-05-17T05:51:55.100Z,75.41
2023-05-17T05:54:26.487Z,75.28
2023-05-17T05:56:55.487Z,74.75
2023-05-17T05:59:30.922Z,74.42
2023-05-17T06:02:01.477Z,74.14
2023-05-17T06:04:41.180Z,73.85
2023-05-17T06:07:16.225Z,73.71
2023-05-17T06:09:44.542Z,73.95
2023-05-17T06:12:15.143Z,73.99
2023-05-17T06:15:04.540Z,73.29
2023-05-17T06:17:34.246Z,73.26
2023-05-17T06:20:02.611Z,73.69
2023-05-17T06:22:39.635Z,73.47
2023-05-17T06:25:08.299Z,73.77
2023-05-17T06:27:38.131Z,74.01
2023-05-17T06:30:10.041Z,74.59
2023-05-17T06:32:38.199Z,74.41
2023-05-17T06:35:07.255Z,74.22
2023-05-17T06:37:35.813Z,73.48
2023-05-17T06:40:15.047Z,73.85
2023-05-17T06:42:44.137Z,74.27
2023-05-17T06:45:14.257Z,73.86
2023-05-17T06:47:42.404Z,74.91
2023-05-17T06:50:11.297Z,74.56
2023-05-17T06:52:39.971Z,74.72
2023-05-17T06:55:09.495Z,74.40
2023-05-17T06:57:37.548Z,74.33
2023-05-17T07:00:10.409Z,74.32
2023-05-17T07:02:38.942Z,74.69
2023-05-17T07:05:07.889Z,74.40
2023-05-17T07:07:36.594Z,74.92
2023-05-17T07:10:06.676Z,77.19
2023-05-17T07:12:34.920Z,77.82
2023-05-17T07:15:02.889Z,78.04
2023-05-17T07:17:34.561Z,77.06
2023-05-17T07:20:03.305Z,76.95
2023-05-17T07:22:31.832Z,77.73
2023-05-17T07:25:00.469Z,77.30
2023-05-17T07:27:28.879Z,76.94
2023-05-17T07:29:57.285Z,78.09
2023-05-17T07:32:25.663Z,77.81
2023-05-17T07:34:54.846Z,76.59
2023-05-17T07:37:25.995Z,75.76
2023-05-17T07:39:54.032Z,76.08
2023-05-17T07:42:27.210Z,74.46
2023-05-17T07:44:55.319Z,73.64
2023-05-17T07:47:23.705Z,73.01
2023-05-17T07:49:51.945Z,73.54
2023-05-17T07:52:20.274Z,74.11
2023-05-17T07:54:50.540Z,74.58
2023-05-17T07:57:21.409Z,74.11
2023-05-17T07:59:49.695Z,73.08
2023-05-17T08:02:22.961Z,73.53
2023-05-17T08:05:00.898Z,73.94
2023-05-17T08:07:29.198Z,73.21
2023-05-17T08:09:57.744Z,73.76
2023-05-17T08:12:26.187Z,74.89
2023-05-17T08:14:54.571Z,74.85
2023-05-17T08:17:22.769Z,74.40
2023-05-17T08:19:51.293Z,75.00
2023-05-17T08:22:19.554Z,74.79
2023-05-17T08:24:47.934Z,74.80
2023-05-17T08:27:17.184Z,73.83
2023-05-17T08:29:45.374Z,73.27
2023-05-17T08:32:13.960Z,73.45
2023-05-17T08:34:42.401Z,73.38
2023-05-17T08:37:10.576Z,73.90
2023-05-17T08:39:41.224Z,73.63
2023-05-17T08:42:10.091Z,73.50
2023-05-17T08:44:59.326Z,73.40
2023-05-17T08:47:39.450Z,73.05
2023-05-17T08:50:08.279Z,72.90
2023-05-17T08:52:37.719Z,73.24
2023-05-17T08:55:08.381Z,70.76
2023-05-17T08:57:40.465Z,71.65
2023-05-17T09:00:15.013Z,71.41
2023-05-17T09:02:44.338Z,70.87
2023-05-17T09:05:14.269Z,71.27
2023-05-17T09:07:45.057Z,71.06
2023-05-17T09:10:13.758Z,70.73
2023-05-17T09:12:42.530Z,70.23
2023-05-17T09:15:16.342Z,70.64
2023-05-17T09:17:56.202Z,71.09
2023-05-17T09:20:35.379Z,71.13
2023-05-17T09:23:04.523Z,70.77
2023-05-17T09:25:37.322Z,70.65
2023-05-17T09:28:13.854Z,71.68
2023-05-17T09:30:49.501Z,72.76
2023-05-17T09:33:21.664Z,72.79
2023-05-17T09:35:52.646Z,72.69
2023-05-17T09:38:41.371Z,72.29
2023-05-17T09:41:09.561Z,71.67
2023-05-17T09:43:45.424Z,71.14
2023-05-17T09:46:15.426Z,72.10
2023-05-17T09:48:45.760Z,71.95
2023-05-17T09:51:14.117Z,71.44
2023-05-17T09:53:42.535Z,71.35
2023-05-17T09:56:30.987Z,71.51
2023-05-17T09:59:02.405Z,71.75
2023-05-17T10:01:31.937Z,72.23
2023-05-17T10:04:23.392Z,72.70
2023-05-17T10:06:55.223Z,72.32
2023-05-17T10:09:23.738Z,72.02
2023-05-17T10:11:56.652Z,71.80
2023-05-17T10:14:32.074Z,71.91
2023-05-17T10:17:03.346Z,71.89
2023-05-17T10:19:32.723Z,71.52
2023-05-17T10:22:11.482Z,71.72
2023-05-17T10:24:51.889Z,71.53
2023-05-17T10:27:23.064Z,70.34
2023-05-17T10:29:53.516Z,70.25
2023-05-17T10:32:27.317Z,70.67
2023-05-17T10:35:10.532Z,69.75
2023-05-17T10:37:41.688Z,70.06
2023-05-17T10:40:13.991Z,69.94
2023-05-17T10:42:46.862Z,70.95
2023-05-17T10:45:15.321Z,70.71
2023-05-17T10:47:46.123Z,69.82
2023-05-17T10:50:21.709Z,69.90
2023-05-17T10:52:51.718Z,70.04
2023-05-17T10:55:22.557Z,69.51
2023-05-17T10:58:11.521Z,70.07
2023-05-17T11:00:41.827Z,69.33
2023-05-17T11:03:19.249Z,69.42
2023-05-17T11:06:13.120Z,68.89
2023-05-17T11:09:09.025Z,68.68
2023-05-17T11:11:37.413Z,68.67
2023-05-17T11:14:06.206Z,68.91
2023-05-17T11:16:36.325Z,67.83
2023-05-17T11:19:12.329Z,68.62
2023-05-17T11:21:48.042Z,67.32
2023-05-17T11:24:22.298Z,66.22
2023-05-17T11:26:51.949Z,66.71
2023-05-17T11:29:20.482Z,65.63
2023-05-17T11:31:53.284Z,65.90
2023-05-17T11:34:25.127Z,65.49
2023-05-17T11:36:55.711Z,65.59
2023-05-17T11:39:25.476Z,64.93
2023-05-17T11:41:56.179Z,63.24
2023-05-17T11:44:34.050Z,63.94
2023-05-17T11:47:07.167Z,62.93
2023-05-17T11:49:38.813Z,61.21
2023-05-17T11:52:07.956Z,60.13
2023-05-17T11:54:40.511Z,60.39
2023-05-17T11:57:11.768Z,59.36
2023-05-17T11:59:40.216Z,58.68
2023-05-17T12:02:08.759Z,59.50
2023-05-17T12:04:39.089Z,60.31
2023-05-17T12:07:11.588Z,60.47
2023-05-17T12:09:40.900Z,59.57
2023-05-17T12:12:09.851Z,59.96
2023-05-17T12:14:38.422Z,59.87
2023-05-17T12:17:09.810Z,60.13
2023-05-17T12:19:38.306Z,60.65
2023-05-17T12:22:08.689Z,60.20
2023-05-17T12:24:39.016Z,60.28
2023-05-17T12:27:07.821Z,59.89
2023-05-17T12:29:35.898Z,59.69
2023-05-17T12:32:06.637Z,59.30
2023-05-17T12:34:36.235Z,60.41
2023-05-17T12:37:04.494Z,61.19
2023-05-17T12:39:33.474Z,61.12
2023-05-17T12:42:02.076Z,61.05
2023-05-17T12:44:41.288Z,61.76
2023-05-17T12:47:10.362Z,62.80
2023-05-17T12:49:39.691Z,64.20
2023-05-17T12:52:08.057Z,64.48
2023-05-17T12:54:36.338Z,64.45
2023-05-17T12:57:14.127Z,64.36
2023-05-17T12:59:53.304Z,64.75
2023-05-17T13:02:21.766Z,64.89
2023-05-17T13:04:50.080Z,65.30
2023-05-17T13:07:23.985Z,65.65
2023-05-17T13:09:52.553Z,66.89
2023-05-17T13:12:24.801Z,66.68
2023-05-17T13:14:54.993Z,66.62
2023-05-17T13:17:50.117Z,67.37
2023-05-17T13:20:18.687Z,66.94
2023-05-17T13:22:48.146Z,66.93
2023-05-17T13:25:16.594Z,66.65
2023-05-17T13:27:49.477Z,65.99
2023-05-17T13:30:20.437Z,66.16
2023-05-17T13:32:48.636Z,66.66
2023-05-17T13:35:17.085Z,66.96
2023-05-17T13:37:48.526Z,66.84
2023-05-17T13:40:16.826Z,66.75
2023-05-17T13:42:45.182Z,66.29
2023-05-17T13:45:14.215Z,67.19
2023-05-17T13:48:02.619Z,67.98
2023-05-17T13:50:31.461Z,67.65
2023-05-17T13:53:02.155Z,66.31
2023-05-17T13:55:54.197Z,66.40
2023-05-17T13:58:27.805Z,66.02
2023-05-17T14:00:59.403Z,65.89
2023-05-17T14:03:36.319Z,66.41
2023-05-17T14:06:05.134Z,66.46
2023-05-17T14:08:33.900Z,66.72
2023-05-17T14:11:11.362Z,67.27
2023-05-17T14:13:49.555Z,67.07
2023-05-17T14:16:17.989Z,67.40
2023-05-17T14:18:46.500Z,67.82
2023-05-17T14:21:14.838Z,67.08
2023-05-17T14:23:46.306Z,66.70
2023-05-17T14:26:14.697Z,66.29
2023-05-17T14:28:43.057Z,66.32
2023-05-17T14:31:11.385Z,66.34
2023-05-17T14:33:39.636Z,66.41
2023-05-17T14:36:08.168Z,66.41
2023-05-17T14:38:39.197Z,67.18
2023-05-17T14:41:07.629Z,67.28
2023-05-17T14:43:36.103Z,67.74
2023-05-17T14:46:06.981Z,67.84
2023-05-17T14:48:35.213Z,67.82
2023-05-17T14:51:04.305Z,67.66
2023-05-17T14:53:35.092Z,68.22
2023-05-17T14:56:03.295Z,68.80
2023-05-17T14:58:31.468Z,68.83
2023-05-17T15:01:04.996Z,69.03
2023-05-17T15:03:35.528Z,68.60
2023-05-17T15:06:07.483Z,67.90
2023-05-17T15:08:39.351Z,68.61
2023-05-17T15:11:07.784Z,67.75
2023-05-17T15:13:36.560Z,67.27
2023-05-17T15:16:07.276Z,67.88
2023-05-17T15:18:36.630Z,66.65
2023-05-17T15:21:05.582Z,66.33
2023-05-17T15:23:33.670Z,67.31
2023-05-17T15:26:01.852Z,67.35
2023-05-17T15:28:29.860Z,66.53
2023-05-17T15:31:02.580Z,66.33
2023-05-17T15:33:32.208Z,67.34
2023-05-17T15:36:00.618Z,67.51
2023-05-17T15:38:28.733Z,67.00
2023-05-17T15:41:07.578Z,66.51
2023-05-17T15:43:35.744Z,67.45
2023-05-17T15:46:04.005Z,67.59
2023-05-17T15:48:32.363Z,67.41
2023-05-17T15:51:01.032Z,66.96
2023-05-17T15:53:30.616Z,67.19
2023-05-17T15:55:59.047Z,67.35
2023-05-17T15:58:33.228Z,68.04
2023-05-17T16:01:06.460Z,67.93
2023-05-17T16:03:35.023Z,68.18
2023-05-17T16:06:04.542Z,68.65
2023-05-17T16:08:33.354Z,69.17
2023-05-17T16:11:02.647Z,69.43
2023-05-17T16:13:31.398Z,69.39
2023-05-17T16:16:00.558Z,69.79
2023-05-17T16:18:36.610Z,70.52
2023-05-17T16:21:07.899Z,70.55
2023-05-17T16:23:36.098Z,70.52
2023-05-17T16:26:04.285Z,71.03
2023-05-17T16:28:32.992Z,71.48
2023-05-17T16:31:01.488Z,71.10
2023-05-17T16:33:29.554Z,71.33
2023-05-17T16:35:58.687Z,71.45
2023-05-17T16:38:26.943Z,71.76
2023-05-17T16:40:55.394Z,72.40
2023-05-17T16:43:23.494Z,72.61
2023-05-17T16:45:53.081Z,72.58
2023-05-17T16:48:21.476Z,72.62
2023-05-17T16:50:49.659Z,72.97
2023-05-17T16:53:17.875Z,73.25
2023-05-17T16:55:46.194Z,73.50
2023-05-17T16:58:14.416Z,73.59
2023-05-17T17:00:44.873Z,73.73
2023-05-17T17:03:13.205Z,74.03
2023-05-17T17:05:41.363Z,74.67
2023-05-17T17:08:09.710Z,75.16
2023-05-17T17:10:45.518Z,76.29
2023-05-17T17:13:13.779Z,78.21
2023-05-17T17:15:41.890Z,78.48
2023-05-17T17:18:11.833Z,77.02
2023-05-17T17:20:40.730Z,77.06
2023-05-17T17:23:09.422Z,76.99
2023-05-17T17:25:37.872Z,76.06
2023-05-17T17:28:06.757Z,76.41
2023-05-17T17:30:36.550Z,77.03
2023-05-17T17:33:07.525Z,77.85
2023-05-17T17:35:35.923Z,76.91
2023-05-17T17:38:04.387Z,76.93
2023-05-17T17:40:33.086Z,78.10
2023-05-17T17:43:04.221Z,77.98
2023-05-17T17:45:47.171Z,77.95
2023-05-17T17:48:15.433Z,77.64
2023-05-17T17:50:44.064Z,77.90
2023-05-17T17:53:12.501Z,78.80
2023-05-17T17:55:43.312Z,79.85
2023-05-17T17:58:11.811Z,79.74
2023-05-17T18:00:40.143Z,79.73
2023-05-17T18:03:08.518Z,79.34
2023-05-17T18:06:07.391Z,79.55
2023-05-17T18:08:38.373Z,80.55
2023-05-17T18:11:16.815Z,81.49
2023-05-17T18:14:08.234Z,81.99
2023-05-17T18:16:45.585Z,81.38
2023-05-17T18:19:23.182Z,82.18
2023-05-17T18:21:51.881Z,82.44
2023-05-17T18:24:32.353Z,82.58
2023-05-17T18:27:00.748Z,82.79
2023-05-17T18:29:28.804Z,83.02
2023-05-17T18:31:59.696Z,82.56
2023-05-17T18:34:28.810Z,81.85
2023-05-17T18:36:56.899Z,80.46
2023-05-17T18:39:25.391Z,79.37
2023-05-17T18:41:53.885Z,78.56
2023-05-17T18:44:22.167Z,78.06
2023-05-17T18:46:51.151Z,77.09
2023-05-17T18:49:21.238Z,76.26
2023-05-17T18:51:49.429Z,75.50
2023-05-17T18:54:17.699Z,75.01
2023-05-17T18:56:46.930Z,74.08
2023-05-17T18:59:15.245Z,73.59
2023-05-17T19:01:43.992Z,73.86
2023-05-17T19:04:12.388Z,73.36
2023-05-17T19:06:42.381Z,73.13
2023-05-17T19:09:10.647Z,73.52
2023-05-17T19:11:38.814Z,73.43
2023-05-17T19:14:09.071Z,72.86
2023-05-17T19:16:37.417Z,73.31
2023-05-17T19:19:06.430Z,73.14
2023-05-17T19:21:34.841Z,73.49
2023-05-17T19:24:05.771Z,74.02
2023-05-17T19:26:34.111Z,73.86
2023-05-17T19:29:02.178Z,73.87
2023-05-17T19:31:30.192Z,74.11
2023-05-17T19:33:59.540Z,74.24
2023-05-17T19:36:28.252Z,74.98
2023-05-17T19:38:56.518Z,75.11
2023-05-17T19:41:24.998Z,74.94
2023-05-17T19:43:53.423Z,74.96
2023-05-17T19:46:21.925Z,75.56
2023-05-17T19:48:50.341Z,75.69
2023-05-17T19:51:18.855Z,75.08
2023-05-17T19:53:53.308Z,74.71
2023-05-17T19:56:24.392Z,74.49
2023-05-17T19:58:53.009Z,75.49
2023-05-17T20:01:21.853Z,76.62
2023-05-17T20:03:50.401Z,76.01
2023-05-17T20:06:18.827Z,75.21
2023-05-17T20:08:47.643Z,75.04
2023-05-17T20:11:16.226Z,75.14
2023-05-17T20:13:44.625Z,75.69
2023-05-17T20:16:13.488Z,75.72
2023-05-17T20:18:43.240Z,76.04
2023-05-17T20:21:19.659Z,75.97
2023-05-17T20:23:48.123Z,76.76
2023-05-17T20:26:25.766Z,76.97
2023-05-17T20:28:54.210Z,77.69
2023-05-17T20:31:22.544Z,78.64
2023-05-17T20:33:50.676Z,78.63
2023-05-17T20:36:19.529Z,78.72
2023-05-17T20:38:47.924Z,78.89
2023-05-17T20:41:16.614Z,79.32
2023-05-17T20:43:45.436Z,79.23
2023-05-17T20:46:14.158Z,80.06
2023-05-17T20:48:43.764Z,80.32
2023-05-17T20:51:12.696Z,80.14
2023-05-17T20:53:40.931Z,80.00
2023-05-17T20:56:09.554Z,79.86
2023-05-17T20:58:38.138Z,79.98
2023-05-17T21:01:08.978Z,79.37
2023-05-17T21:03:39.875Z,78.80
2023-05-17T21:06:09.217Z,78.52
2023-05-17T21:08:37.675Z,78.45
2023-05-17T21:11:05.997Z,78.12
2023-05-17T21:13:34.886Z,78.04
2023-05-17T21:16:12.037Z,77.77
2023-05-17T21:18:41.267Z,77.91
2023-05-17T21:21:09.595Z,77.69
2023-05-17T21:23:38.131Z,77.04
2023-05-17T21:26:15.666Z,76.88
2023-05-17T21:28:44.076Z,76.47
2023-05-17T21:31:23.982Z,76.33
2023-05-17T21:34:12.592Z,76.06
2023-05-17T21:36:41.102Z,76.09
2023-05-17T21:39:09.178Z,75.93
2023-05-17T21:41:37.686Z,75.72
2023-05-17T21:44:08.805Z,75.83
2023-05-17T21:46:37.004Z,75.69
2023-05-17T21:49:06.133Z,75.45
2023-05-17T21:51:47.013Z,75.80
2023-05-17T21:54:15.754Z,75.90
2023-05-17T21:56:44.061Z,76.16
2023-05-17T21:59:12.299Z,76.64
2023-05-17T22:01:41.107Z,76.91
2023-05-17T22:04:09.513Z,77.39
2023-05-17T22:06:37.594Z,77.34
2023-05-17T22:09:06.978Z,77.20
2023-05-17T22:11:38.425Z,77.19
2023-05-17T22:14:07.743Z,76.98
2023-05-17T22:16:36.237Z,76.96
2023-05-17T22:19:06.036Z,76.09
2023-05-17T22:21:36.752Z,75.74
2023-05-17T22:24:05.648Z,75.71
2023-05-17T22:26:34.000Z,75.66
2023-05-17T22:29:02.167Z,75.41
2023-05-17T22:31:30.868Z,74.97
2023-05-17T22:33:59.323Z,75.29
2023-05-17T22:36:27.442Z,75.13
2023-05-17T22:38:56.719Z,74.90
2023-05-17T22:41:24.741Z,74.88
2023-05-17T22:43:53.802Z,74.85
2023-05-17T22:46:22.857Z,74.13
2023-05-17T22:48:52.837Z,73.76
2023-05-17T22:51:22.463Z,73.87
2023-05-17T22:53:50.732Z,73.93
2023-05-17T22:56:18.766Z,73.60
2023-05-17T22:58:46.873Z,73.53
2023-05-17T23:01:15.196Z,73.40
2023-05-17T23:03:43.637Z,73.42
2023-05-17T23:06:11.774Z,73.38
2023-05-17T23:08:42.019Z,73.00
2023-05-17T23:11:10.334Z,72.77
2023-05-17T23:13:38.734Z,72.59
2023-05-17T23:16:07.834Z,72.42
2023-05-17T23:18:36.502Z,72.06
2023-05-17T23:21:04.905Z,71.53
2023-05-17T23:23:33.185Z,70.91
2023-05-17T23:26:01.351Z,70.71
2023-05-17T23:28:29.794Z,70.52
2023-05-17T23:31:03.239Z,70.82
2023-05-17T23:33:31.690Z,71.39
2023-05-17T23:36:00.288Z,71.86
2023-05-17T23:38:28.438Z,72.64
2023-05-17T23:40:58.423Z,73.12
2023-05-17T23:43:26.961Z,73.84
2023-05-17T23:45:55.209Z,73.99
2023-05-17T23:48:25.755Z,74.46
2023-05-17T23:50:54.181Z,74.97
2023-05-17T23:53:23.740Z,75.06
2023-05-17T23:55:52.047Z,75.18
2023-05-17T23:58:20.180Z,75.90
